createdAt,value
2022-08-07T00:00:05.159Z,98955.13
2022-08-07T00:03:36.772Z,98952.88
2022-08-07T00:06:51.289Z,98953.22
2022-08-07T00:10:18.737Z,98954.13
2022-08-07T00:13:25.846Z,98956.09
2022-08-07T00:16:29.870Z,98959.23
2022-08-07T00:20:00.644Z,98958.33
2022-08-07T00:22:56.060Z,98965.21
2022-08-07T00:26:12.868Z,98969.17
2022-08-07T00:29:25.957Z,98972.48
2022-08-07T00:32:34.962Z,98973.90
2022-08-07T00:35:37.957Z,98969.58
2022-08-07T00:38:40.906Z,98970.02
2022-08-07T00:42:10.235Z,98971.98
2022-08-07T00:45:16.149Z,98968.25
2022-08-07T00:48:19.522Z,98970.85
2022-08-07T00:51:57.020Z,98976.93
2022-08-07T00:54:53.362Z,98973.83
2022-08-07T00:57:56.803Z,98970.23
2022-08-07T01:01:00.003Z,98967.14
2022-08-07T01:04:07.502Z,98967.52
2022-08-07T01:07:13.044Z,98970.11
2022-08-07T01:10:18.342Z,98964.71
2022-08-07T01:13:22.047Z,98962.63
2022-08-07T01:16:30.493Z,98963.15
2022-08-07T01:19:39.840Z,98960.25
2022-08-07T01:22:46.712Z,98962.82
2022-08-07T01:26:05.267Z,98962.73
2022-08-07T01:29:09.335Z,98968.13
2022-08-07T01:32:13.558Z,98971.15
2022-08-07T01:35:18.984Z,98968.01
2022-08-07T01:38:29.275Z,98972.30
2022-08-07T01:41:38.381Z,98975.83
2022-08-07T01:44:42.234Z,98973.88
2022-08-07T01:48:19.786Z,98978.84
2022-08-07T01:52:01.153Z,98972.55
2022-08-07T01:54:42.203Z,98961.63
2022-08-07T01:58:06.377Z,98959.28
2022-08-07T02:02:00.169Z,98960.89
2022-08-07T02:05:04.903Z,98964.67
2022-08-07T02:08:13.956Z,98958.13
2022-08-07T02:11:31.073Z,98957.49
2022-08-07T02:14:41.417Z,98960.07
2022-08-07T02:17:53.704Z,98961.68
2022-08-07T02:20:58.942Z,98955.77
2022-08-07T02:24:03.178Z,98960.88
2022-08-07T02:27:08.496Z,98964.02
2022-08-07T02:30:12.490Z,98961.17
2022-08-07T02:33:20.135Z,98961.10
2022-08-07T02:36:30.255Z,98967.23
2022-08-07T02:40:11.757Z,98966.11
2022-08-07T02:43:09.008Z,98969.23
2022-08-07T02:46:13.024Z,98970.13
2022-08-07T02:49:55.767Z,98976.65
2022-08-07T02:52:53.233Z,98983.27
2022-08-07T02:56:04.137Z,98982.67
2022-08-07T02:59:11.676Z,98979.14
2022-08-07T03:02:16.054Z,98976.40
2022-08-07T03:05:20.687Z,98973.40
2022-08-07T03:08:29.392Z,98974.54
2022-08-07T03:11:38.872Z,98980.27
2022-08-07T03:14:56.434Z,98973.48
2022-08-07T03:18:00.946Z,98971.85
2022-08-07T03:21:08.642Z,98969.49
2022-08-07T03:24:20.685Z,98973.48
2022-08-07T03:28:09.212Z,98971.98
2022-08-07T03:31:15.821Z,98972.08
2022-08-07T03:34:22.542Z,98971.62
2022-08-07T03:37:45.865Z,98971.86
2022-08-07T03:40:57.876Z,98974.96
2022-08-07T03:44:02.087Z,98977.52
2022-08-07T03:47:13.165Z,98977.66
2022-08-07T03:50:22.972Z,98977.27
2022-08-07T03:53:50.027Z,98979.55
2022-08-07T03:57:03.791Z,98981.42
2022-08-07T04:00:12.135Z,98982.98
2022-08-07T04:03:24.707Z,98982.64
2022-08-07T04:06:36.182Z,98980.25
2022-08-07T04:09:45.273Z,98982.77
2022-08-07T04:12:55.686Z,98985.98
2022-08-07T04:15:59.649Z,98987.48
2022-08-07T04:19:14.636Z,98986.13
2022-08-07T04:22:19.900Z,98992.20
2022-08-07T04:25:29.210Z,98990.30
2022-08-07T04:28:33.378Z,98992.73
2022-08-07T04:32:03.462Z,98994.05
2022-08-07T04:35:06.246Z,98988.92
2022-08-07T04:38:13.095Z,98996.91
2022-08-07T04:41:19.293Z,99005.84
2022-08-07T04:44:24.676Z,99003.05
2022-08-07T04:47:57.017Z,99001.28
2022-08-07T04:51:37.385Z,99002.30
2022-08-07T04:55:15.572Z,99002.44
2022-08-07T04:59:17.479Z,98998.63
2022-08-07T05:02:16.726Z,99007.81
2022-08-07T05:05:54.488Z,99012.07
2022-08-07T05:09:10.966Z,99017.89
2022-08-07T05:12:27.376Z,99016.99
2022-08-07T05:15:37.672Z,99017.40
2022-08-07T05:18:47.397Z,99016.33
2022-08-07T05:22:00.303Z,99019.10
2022-08-07T05:25:08.707Z,99020.61
2022-08-07T05:28:23.085Z,99017.80
2022-08-07T05:31:34.736Z,99017.01
2022-08-07T05:34:41.857Z,99014.37
2022-08-07T05:37:46.575Z,99017.34
2022-08-07T05:41:14.219Z,99016.04
2022-08-07T05:44:29.129Z,99015.52
2022-08-07T05:47:37.885Z,99019.45
2022-08-07T05:51:01.105Z,99019.65
2022-08-07T05:54:12.271Z,99019.37
2022-08-07T05:57:34.626Z,99019.87
2022-08-07T06:00:41.566Z,99021.15
2022-08-07T06:03:58.593Z,99023.30
2022-08-07T06:07:06.089Z,99023.38
2022-08-07T06:10:15.337Z,99025.65
2022-08-07T06:13:20.861Z,99026.88
2022-08-07T06:16:50.565Z,99024.06
2022-08-07T06:20:03.932Z,99021.30
2022-08-07T06:23:45.754Z,99021.52
2022-08-07T06:26:32.660Z,99025.86
2022-08-07T06:29:38.997Z,99024.57
2022-08-07T06:32:42.947Z,99025.47
2022-08-07T06:36:06.088Z,99026.59
2022-08-07T06:40:18.366Z,99028.27
2022-08-07T06:42:37.622Z,99025.59
2022-08-07T06:46:00.978Z,99033.96
2022-08-07T06:49:05.270Z,99033.77
2022-08-07T06:52:14.961Z,99032.10
2022-08-07T06:55:32.992Z,99035.32
2022-08-07T07:00:13.715Z,99036.30
2022-08-07T07:02:48.802Z,99037.64
2022-08-07T07:06:03.809Z,99038.28
2022-08-07T07:09:18.768Z,99041.06
2022-08-07T07:12:37.422Z,99037.41
2022-08-07T07:16:00.391Z,99036.05
2022-08-07T07:19:54.812Z,99036.59
2022-08-07T07:22:36.215Z,99037.70
2022-08-07T07:26:34.046Z,99038.88
2022-08-07T07:29:38.865Z,99038.08
2022-08-07T07:32:40.468Z,99035.70
2022-08-07T07:36:05.082Z,99037.31
2022-08-07T07:39:10.778Z,99035.09
2022-08-07T07:42:19.714Z,99031.65
2022-08-07T07:46:37.173Z,99034.05
2022-08-07T07:48:59.917Z,99034.38
2022-08-07T07:52:13.699Z,99036.68
2022-08-07T07:55:20.447Z,99040.80
2022-08-07T07:58:30.084Z,99035.04
2022-08-07T08:02:01.997Z,99035.63
2022-08-07T08:04:57.845Z,99033.19
2022-08-07T08:08:02.086Z,99033.05
2022-08-07T08:11:08.554Z,99035.94
2022-08-07T08:14:12.182Z,99037.85
2022-08-07T08:18:17.665Z,99031.96
2022-08-07T08:20:40.783Z,99031.60
2022-08-07T08:24:04.978Z,99032.78
2022-08-07T08:27:10.144Z,99031.61
2022-08-07T08:30:19.572Z,99034.84
2022-08-07T08:33:28.868Z,99041.34
2022-08-07T08:36:37.179Z,99040.43
2022-08-07T08:39:55.285Z,99042.30
2022-08-07T08:43:13.761Z,99040.20
2022-08-07T08:46:41.338Z,99035.70
2022-08-07T08:50:04.829Z,99036.20
2022-08-07T08:53:19.822Z,99025.48
2022-08-07T08:56:36.838Z,99038.66
2022-08-07T08:59:50.377Z,99039.65
2022-08-07T09:03:00.924Z,99033.98
2022-08-07T09:06:16.770Z,99027.63
2022-08-07T09:10:03.729Z,99033.80
2022-08-07T09:13:10.975Z,99032.36
2022-08-07T09:16:26.702Z,99030.80
2022-08-07T09:20:01.830Z,99025.23
2022-08-07T09:24:32.765Z,99024.60
2022-08-07T09:27:09.094Z,99018.21
2022-08-07T09:30:15.197Z,99012.27
2022-08-07T09:33:56.759Z,99004.27
2022-08-07T09:37:06.205Z,99009.01
2022-08-07T09:40:39.125Z,99009.53
2022-08-07T09:44:05.584Z,99005.89
2022-08-07T09:47:52.711Z,99007.91
2022-08-07T09:50:59.778Z,99003.87
2022-08-07T09:54:06.759Z,99004.41
2022-08-07T09:58:08.099Z,99001.65
2022-08-07T10:01:50.275Z,99000.98
2022-08-07T10:04:47.605Z,98997.10
2022-08-07T10:08:09.306Z,99000.49
2022-08-07T10:12:02.102Z,98990.55
2022-08-07T10:15:15.400Z,98982.83
2022-08-07T10:18:31.468Z,98978.73
2022-08-07T10:22:16.080Z,98977.33
2022-08-07T10:25:42.961Z,98976.91
2022-08-07T10:29:19.626Z,98973.23
2022-08-07T10:32:52.677Z,98964.94
2022-08-07T10:36:17.027Z,98959.77
2022-08-07T10:40:02.595Z,98958.92
2022-08-07T10:43:14.442Z,98956.39
2022-08-07T10:46:30.174Z,98956.77
2022-08-07T10:49:49.289Z,98947.06
2022-08-07T10:53:21.302Z,98940.79
2022-08-07T10:56:31.390Z,98939.75
2022-08-07T10:59:53.119Z,98936.89
2022-08-07T11:03:11.184Z,98940.73
2022-08-07T11:06:34.635Z,98939.75
2022-08-07T11:10:07.896Z,98929.88
2022-08-07T11:14:46.406Z,98921.15
2022-08-07T11:17:09.004Z,98918.17
2022-08-07T11:20:24.842Z,98918.12
2022-08-07T11:23:54.651Z,98919.65
2022-08-07T11:27:07.251Z,98916.59
2022-08-07T11:30:29.083Z,98918.46
2022-08-07T11:33:54.150Z,98921.65
2022-08-07T11:37:24.192Z,98920.30
2022-08-07T11:40:49.551Z,98917.66
2022-08-07T11:44:11.770Z,98915.90
2022-08-07T11:47:39.185Z,98913.13
2022-08-07T11:51:40.882Z,98908.56
2022-08-07T11:56:25.016Z,98905.41
2022-08-07T12:00:09.986Z,98910.64
2022-08-07T12:03:41.482Z,98914.77
2022-08-07T12:07:01.021Z,98904.48
2022-08-07T12:10:25.146Z,98901.51
2022-08-07T12:13:37.897Z,98892.02
2022-08-07T12:16:54.871Z,98884.84
2022-08-07T12:20:18.708Z,98881.20
2022-08-07T12:24:07.345Z,98881.69
2022-08-07T12:27:16.738Z,98884.52
2022-08-07T12:30:26.090Z,98885.66
2022-08-07T12:33:56.667Z,98889.59
2022-08-07T12:36:57.658Z,98886.02
2022-08-07T12:40:05.481Z,98876.73
2022-08-07T12:44:02.223Z,98872.25
2022-08-07T12:46:55.515Z,98867.77
2022-08-07T12:50:39.315Z,98869.92
2022-08-07T12:54:37.426Z,98863.54
2022-08-07T12:58:00.415Z,98863.75
2022-08-07T13:01:23.168Z,98865.09
2022-08-07T13:05:02.682Z,98856.78
2022-08-07T13:08:18.728Z,98851.26
2022-08-07T13:12:03.037Z,98844.29
2022-08-07T13:15:59.328Z,98848.52
2022-08-07T13:19:34.876Z,98845.65
2022-08-07T13:24:01.058Z,98842.48
2022-08-07T13:27:00.365Z,98840.30
2022-08-07T13:30:19.672Z,98834.62
2022-08-07T13:34:34.375Z,98832.31
2022-08-07T13:38:01.223Z,98826.42
2022-08-07T13:41:41.418Z,98828.35
2022-08-07T13:44:55.446Z,98828.22
2022-08-07T13:48:20.684Z,98822.27
2022-08-07T13:52:04.514Z,98819.79
2022-08-07T13:55:07.126Z,98822.30
2022-08-07T13:58:32.074Z,98822.41
2022-08-07T14:01:51.402Z,98819.30
2022-08-07T14:05:06.131Z,98816.61
2022-08-07T14:08:11.722Z,98818.33
2022-08-07T14:11:18.933Z,98809.70
2022-08-07T14:14:32.978Z,98804.41
2022-08-07T14:18:24.238Z,98799.92
2022-08-07T14:21:21.159Z,98800.39
2022-08-07T14:24:41.213Z,98802.15
2022-08-07T14:28:11.061Z,98797.28
2022-08-07T14:31:16.440Z,98798.55
2022-08-07T14:34:22.740Z,98801.41
2022-08-07T14:37:36.312Z,98799.30
2022-08-07T14:40:49.378Z,98800.31
2022-08-07T14:44:07.765Z,98800.02
2022-08-07T14:47:14.596Z,98795.65
2022-08-07T14:50:20.761Z,98783.56
2022-08-07T14:54:09.847Z,98781.36
2022-08-07T14:56:50.765Z,98782.02
2022-08-07T15:00:04.431Z,98778.29
2022-08-07T15:03:16.681Z,98779.69
2022-08-07T15:06:27.691Z,98777.15
2022-08-07T15:12:59.910Z,98772.46
2022-08-07T15:16:11.218Z,98774.05
2022-08-07T15:19:22.615Z,98770.81
2022-08-07T15:22:53.783Z,98772.21
2022-08-07T15:25:58.474Z,98769.73
2022-08-07T15:32:39.879Z,98767.38
2022-08-07T15:36:01.910Z,98768.86
2022-08-07T15:39:12.949Z,98764.62
2022-08-07T15:42:44.791Z,98764.94
2022-08-07T15:45:58.246Z,98761.50
2022-08-07T15:49:12.898Z,98754.53
2022-08-07T15:52:30.172Z,98759.88
2022-08-07T15:55:54.024Z,98760.04
2022-08-07T15:59:01.196Z,98760.30
2022-08-07T16:02:06.290Z,98764.16
2022-08-07T16:05:17.995Z,98759.55
2022-08-07T16:08:31.418Z,98755.61
2022-08-07T16:12:12.119Z,98755.91
2022-08-07T16:15:54.640Z,98754.80
2022-08-07T16:18:59.159Z,98752.65
2022-08-07T16:22:33.674Z,98749.92
2022-08-07T16:25:55.394Z,98748.57
2022-08-07T16:30:11.303Z,98745.98
2022-08-07T16:32:54.860Z,98741.77
2022-08-07T16:36:20.114Z,98743.14
2022-08-07T16:39:33.654Z,98738.10
2022-08-07T16:42:55.838Z,98735.63
2022-08-07T16:47:05.538Z,98734.63
2022-08-07T16:50:28.729Z,98740.02
2022-08-07T16:54:22.051Z,98745.36
2022-08-07T16:58:01.771Z,98745.98
2022-08-07T17:01:41.380Z,98743.23
2022-08-07T17:05:00.817Z,98747.59
2022-08-07T17:08:04.721Z,98743.09
2022-08-07T17:11:27.853Z,98744.42
2022-08-07T17:15:04.353Z,98750.16
2022-08-07T17:18:16.371Z,98746.46
2022-08-07T17:21:26.545Z,98745.17
2022-08-07T17:24:48.855Z,98746.81
2022-08-07T17:28:06.793Z,98751.41
2022-08-07T17:31:17.325Z,98755.92
2022-08-07T17:34:34.672Z,98759.24
2022-08-07T17:38:05.691Z,98762.38
2022-08-07T17:42:04.843Z,98760.43
2022-08-07T17:45:19.899Z,98761.45
2022-08-07T17:48:32.107Z,98765.00
2022-08-07T17:51:59.579Z,98763.58
2022-08-07T17:55:07.533Z,98764.94
2022-08-07T17:58:30.220Z,98771.18
2022-08-07T18:01:44.624Z,98769.66
2022-08-07T18:05:21.036Z,98777.80
2022-08-07T18:09:01.187Z,98777.91
2022-08-07T18:12:47.024Z,98778.11
2022-08-07T18:16:03.130Z,98781.57
2022-08-07T18:21:08.115Z,98784.88
2022-08-07T18:22:52.967Z,98782.60
2022-08-07T18:26:01.564Z,98783.14
2022-08-07T18:30:08.244Z,98788.04
2022-08-07T18:32:47.107Z,98788.25
2022-08-07T18:36:32.635Z,98793.22
2022-08-07T18:40:09.006Z,98797.05
2022-08-07T18:43:42.794Z,98796.82
2022-08-07T18:47:01.697Z,98799.87
2022-08-07T18:50:40.455Z,98800.98
2022-08-07T18:53:42.301Z,98799.70
2022-08-07T18:56:58.342Z,98797.97
2022-08-07T19:00:34.339Z,98803.49
2022-08-07T19:03:59.136Z,98805.88
2022-08-07T19:07:35.058Z,98802.95
2022-08-07T19:10:47.877Z,98805.52
2022-08-07T19:14:33.634Z,98808.44
2022-08-07T19:18:04.062Z,98812.90
2022-08-07T19:21:46.499Z,98812.42
2022-08-07T19:24:54.513Z,98814.04
2022-08-07T19:30:55.675Z,98812.92
2022-08-07T19:32:05.445Z,98813.67
2022-08-07T19:34:55.202Z,98813.87
2022-08-07T19:38:00.525Z,98812.80
2022-08-07T19:41:04.609Z,98820.84
2022-08-07T19:44:21.786Z,98824.13
2022-08-07T19:47:30.593Z,98834.17
2022-08-07T19:50:46.460Z,98834.98
2022-08-07T19:54:32.313Z,98833.63
2022-08-07T19:58:04.409Z,98831.80
2022-08-07T20:01:18.390Z,98833.98
2022-08-07T20:04:31.962Z,98831.52
2022-08-07T20:07:47.320Z,98833.20
2022-08-07T20:11:01.879Z,98833.27
2022-08-07T20:14:20.621Z,98837.09
2022-08-07T20:17:27.222Z,98837.61
2022-08-07T20:20:33.304Z,98843.58
2022-08-07T20:23:48.394Z,98842.37
2022-08-07T20:27:04.767Z,98842.09
2022-08-07T20:30:11.754Z,98843.02
2022-08-07T20:33:36.270Z,98847.30
2022-08-07T20:36:44.127Z,98844.88
2022-08-07T20:40:02.042Z,98845.06
2022-08-07T20:43:16.898Z,98847.70
2022-08-07T20:46:32.297Z,98844.46
2022-08-07T20:49:59.098Z,98842.11
2022-08-07T20:53:15.853Z,98845.39
2022-08-07T20:56:27.280Z,98843.84
2022-08-07T21:00:06.466Z,98847.89
2022-08-07T21:02:58.583Z,98851.27
2022-08-07T21:06:12.354Z,98853.45
2022-08-07T21:09:51.672Z,98856.42
2022-08-07T21:12:59.292Z,98855.70
2022-08-07T21:16:08.659Z,98855.95
2022-08-07T21:19:16.862Z,98856.24
2022-08-07T21:22:25.581Z,98849.95
2022-08-07T21:26:05.383Z,98847.02
2022-08-07T21:29:38.095Z,98843.81
2022-08-07T21:33:00.390Z,98850.52
2022-08-07T21:36:40.931Z,98854.98
2022-08-07T21:40:12.138Z,98853.00
2022-08-07T21:43:25.506Z,98856.40
2022-08-07T21:47:12.307Z,98858.73
2022-08-07T21:50:36.683Z,98855.11
2022-08-07T21:53:52.447Z,98852.80
2022-08-07T21:57:39.592Z,98853.74
2022-08-07T22:00:50.024Z,98852.77
2022-08-07T22:04:03.939Z,98852.38
2022-08-07T22:07:16.642Z,98858.13
2022-08-07T22:10:28.760Z,98855.39
2022-08-07T22:13:51.407Z,98856.94
2022-08-07T22:17:04.105Z,98857.96
2022-08-07T22:20:23.989Z,98858.45
2022-08-07T22:23:43.061Z,98856.90
2022-08-07T22:27:02.125Z,98857.45
2022-08-07T22:30:29.974Z,98865.14
2022-08-07T22:33:56.282Z,98858.27
2022-08-07T22:37:09.279Z,98854.04
2022-08-07T22:40:50.561Z,98858.59
2022-08-07T22:43:56.618Z,98860.81
2022-08-07T22:47:17.974Z,98859.58
2022-08-07T22:50:46.221Z,98860.09
2022-08-07T22:54:37.004Z,98857.98
2022-08-07T22:58:10.895Z,98857.78
2022-08-07T23:01:41.920Z,98854.40
2022-08-07T23:06:09.606Z,98852.59
2022-08-07T23:08:59.596Z,98848.00
2022-08-07T23:12:37.516Z,98844.98
2022-08-07T23:16:07.148Z,98839.40
2022-08-07T23:20:03.543Z,98837.90
2022-08-07T23:24:06.955Z,98837.77
2022-08-07T23:27:06.282Z,98834.15
2022-08-07T23:30:35.908Z,98836.70
2022-08-07T23:34:23.500Z,98834.73
2022-08-07T23:38:00.925Z,98830.05
2022-08-07T23:41:20.996Z,98831.58
2022-08-07T23:44:44.023Z,98831.86
2022-08-07T23:48:06.847Z,98830.69
2022-08-07T23:52:57.201Z,98836.23
2022-08-07T23:55:00.628Z,98831.52
2022-08-07T23:58:21.734Z,98826.65
